Paddy Guidry — WTG3900 — position and weather

sailwx.info

Track history (hours):
 
Tides and Currents Weather Stations Pressure Air Temp Water Temp Dewpoint Dewpoint Depression Visibility Wind Speed Wind Dir Waves Ship Positions

Paddy Guidry

Owner: CAPTAIN TIMMY INC, GALLIANO, LA. More information available from US FCC via Universal Licensing System and Coast Guard Vessel Documentation Center.

Last reported at 2017-Apr-15 04:47 UTC. Time now 2017-May-28 16:28 UTC.
Position N 29°34' W 090°32'.
Warning: this ship's position is 43 days out of date.

; draft 1.5 m.

Type: Tug. MMSI: 366998310.

Date/timePositionNaut miles runAvg speedWind from/ knotsBaromVisibWave heightAir tempDewpointWater temp
2017-Apr-15 04:47N 29°34' W 090°32'1 5.0
2017-Apr-15 04:30N 29°34' W 090°34'2 4.0
2017-Apr-15 03:59N 29°35' W 090°36'2 5.1
2017-Apr-15 03:30N 29°35' W 090°38'1 1.7
2017-Apr-15 02:44N 29°36' W 090°40'1 5.3
2017-Apr-15 02:31N 29°36' W 090°41'2 3.6
2017-Apr-15 02:01N 29°35' W 090°43'2 4.4
2017-Apr-15 01:31N 29°34' W 090°45'3 5.9
2017-Apr-15 01:01N 29°32' W 090°47'2 0.3
2017-Apr-14 18:32N 29°32' W 090°50'0 4.1
2017-Apr-14 18:30N 29°32' W 090°50'2 4.2
2017-Apr-14 18:01N 29°32' W 090°47'2 3.7
2017-Apr-14 17:31N 29°33' W 090°45'2 3.8
2017-Apr-14 17:01N 29°34' W 090°44'2 3.6
2017-Apr-14 16:30N 29°36' W 090°43'1 2.8
2017-Apr-14 16:00N 29°37' W 090°42'2 3.2
2017-Apr-14 15:30N 29°36' W 090°40'1 1.0
2017-Apr-14 14:59N 29°36' W 090°40'0 0.0
2017-Apr-14 14:30N 29°36' W 090°40'0 0.1
2017-Apr-14 13:30N 29°36' W 090°40'0 0.0
2017-Apr-14 13:01N 29°36' W 090°40'0 0.0
2017-Apr-14 12:30N 29°36' W 090°40'0 0.0
2017-Apr-14 12:00N 29°36' W 090°40'0 0.0
2017-Apr-14 11:30N 29°36' W 090°40'0 0.0
2017-Apr-14 11:00N 29°36' W 090°40'0 0.0
2017-Apr-14 10:29N 29°36' W 090°40'0 0.0
2017-Apr-14 10:00N 29°36' W 090°40'0 0.0
2017-Apr-14 09:30N 29°36' W 090°40'0 0.0
2017-Apr-14 09:00N 29°36' W 090°40'0 0.0
2017-Apr-14 08:30N 29°36' W 090°40'0 0.0
2017-Apr-14 08:00N 29°36' W 090°40'0 0.0
2017-Apr-14 07:30N 29°36' W 090°40'0 0.0
2017-Apr-14 07:00N 29°36' W 090°40'0 0.0
2017-Apr-14 06:30N 29°36' W 090°40'0 0.0
2017-Apr-14 06:00N 29°36' W 090°40'0 0.0
2017-Apr-14 05:30N 29°36' W 090°40'0 0.0
2017-Apr-14 05:00N 29°36' W 090°40'0 0.0
2017-Apr-14 04:29N 29°36' W 090°40'0 0.0
2017-Apr-14 04:00N 29°36' W 090°40'0 0.0
2017-Apr-14 03:30N 29°36' W 090°40'0 0.0
2017-Apr-14 03:00N 29°36' W 090°40'0 0.0
2017-Apr-14 02:30N 29°36' W 090°40'0 0.0
2017-Apr-14 01:59N 29°36' W 090°40'0 0.0
2017-Apr-14 01:30N 29°36' W 090°40'0 0.0
2017-Apr-14 01:00N 29°36' W 090°40'0 0.0
2017-Apr-14 00:30N 29°36' W 090°40'0 0.0
2017-Apr-14 00:00N 29°36' W 090°40'0 0.0
2017-Apr-13 23:30N 29°36' W 090°40'0 0.0
2017-Apr-13 23:00N 29°36' W 090°40'0 0.0
2017-Apr-13 22:30N 29°36' W 090°40'0 0.0
2017-Apr-13 22:00N 29°36' W 090°40'0 0.2
2017-Apr-13 21:20N 29°36' W 090°40'0 0.4
2017-Apr-13 21:00N 29°36' W 090°40'0 0.5
2017-Apr-13 20:31N 29°36' W 090°40'2 3.5
2017-Apr-13 20:01N 29°37' W 090°42'2 4.5
2017-Apr-13 19:30N 29°35' W 090°43'3 5.0
2017-Apr-13 19:00N 29°32' W 090°42'3 5.7
2017-Apr-13 18:30N 29°30' W 090°43'3 5.8
2017-Apr-13 18:00N 29°27' W 090°43'6 0.2
2017-Apr-12 17:31N 29°25' W 090°50'0 4.9
2017-Apr-12 17:25N 29°25' W 090°49'2 4.2
2017-Apr-12 16:54N 29°25' W 090°47'2 5.3
2017-Apr-12 16:30N 29°24' W 090°44'2 4.2
2017-Apr-12 16:00N 29°26' W 090°43'3 6.0
2017-Apr-12 15:30N 29°29' W 090°43'3 6.0
2017-Apr-12 15:00N 29°32' W 090°42'3 5.4
2017-Apr-12 14:30N 29°34' W 090°43'3 2.7
2017-Apr-12 13:31N 29°37' W 090°41'1 2.6
2017-Apr-12 13:00N 29°36' W 090°40'0 0.3
2017-Apr-12 12:30N 29°36' W 090°40'0 0.0
2017-Apr-12 07:57N 29°36' W 090°40'0 0.2
2017-Apr-12 07:30N 29°36' W 090°40'0 0.0
2017-Apr-12 05:47N 29°36' W 090°40'0 0.3
2017-Apr-12 05:30N 29°36' W 090°40'3 6.2
2017-Apr-12 05:00N 29°35' W 090°36'3 5.4
2017-Apr-12 04:30N 29°34' W 090°33'  
2017-Apr-05 21:22N 29°34' W 090°32'3 7.3
2017-Apr-05 21:00N 29°34' W 090°35'3 6.1
2017-Apr-05 20:30N 29°35' W 090°38'2 3.0
2017-Apr-05 19:57N 29°36' W 090°40'0 0.1
2017-Apr-05 19:30N 29°36' W 090°40'0 0.1
2017-Apr-05 19:00N 29°36' W 090°40'0 0.0
2017-Apr-05 18:30N 29°36' W 090°40'1 2.0
2017-Apr-05 18:00N 29°35' W 090°39'3 5.4
2017-Apr-05 17:30N 29°35' W 090°36'3 6.0
2017-Apr-05 17:00N 29°34' W 090°33'  
Track history (hours):
 
Tides and Currents Weather Stations Pressure Air Temp Water Temp Dewpoint Dewpoint Depression Visibility Wind Speed Wind Dir Waves Ship Positions

Paddy Guidry

Owner: CAPTAIN TIMMY INC, GALLIANO, LA. More information available from US FCC via Universal Licensing System and Coast Guard Vessel Documentation Center.

Last reported at 2017-Apr-15 04:47 UTC. Time now 2017-May-28 16:28 UTC.
Position N 29°34' W 090°32'.
Warning: this ship's position is 43 days out of date.

; draft 1.5 m.

Type: Tug. MMSI: 366998310.

Date/timePositionNaut miles runAvg speedWind from/ knotsBaromVisibWave heightAir tempDewpointWater temp
2017-Apr-15 04:47N 29°34' W 090°32'1 5.0
2017-Apr-15 04:30N 29°34' W 090°34'2 4.0
2017-Apr-15 03:59N 29°35' W 090°36'2 5.1
2017-Apr-15 03:30N 29°35' W 090°38'1 1.7
2017-Apr-15 02:44N 29°36' W 090°40'1 5.3
2017-Apr-15 02:31N 29°36' W 090°41'2 3.6
2017-Apr-15 02:01N 29°35' W 090°43'2 4.4
2017-Apr-15 01:31N 29°34' W 090°45'3 5.9
2017-Apr-15 01:01N 29°32' W 090°47'2 0.3
2017-Apr-14 18:32N 29°32' W 090°50'0 4.1
2017-Apr-14 18:30N 29°32' W 090°50'2 4.2
2017-Apr-14 18:01N 29°32' W 090°47'2 3.7
2017-Apr-14 17:31N 29°33' W 090°45'2 3.8
2017-Apr-14 17:01N 29°34' W 090°44'2 3.6
2017-Apr-14 16:30N 29°36' W 090°43'1 2.8
2017-Apr-14 16:00N 29°37' W 090°42'2 3.2
2017-Apr-14 15:30N 29°36' W 090°40'1 1.0
2017-Apr-14 14:59N 29°36' W 090°40'0 0.0
2017-Apr-14 14:30N 29°36' W 090°40'0 0.1
2017-Apr-14 13:30N 29°36' W 090°40'0 0.0
2017-Apr-14 13:01N 29°36' W 090°40'0 0.0
2017-Apr-14 12:30N 29°36' W 090°40'0 0.0
2017-Apr-14 12:00N 29°36' W 090°40'0 0.0
2017-Apr-14 11:30N 29°36' W 090°40'0 0.0
2017-Apr-14 11:00N 29°36' W 090°40'0 0.0
2017-Apr-14 10:29N 29°36' W 090°40'0 0.0
2017-Apr-14 10:00N 29°36' W 090°40'0 0.0
2017-Apr-14 09:30N 29°36' W 090°40'0 0.0
2017-Apr-14 09:00N 29°36' W 090°40'0 0.0
2017-Apr-14 08:30N 29°36' W 090°40'0 0.0
2017-Apr-14 08:00N 29°36' W 090°40'0 0.0
2017-Apr-14 07:30N 29°36' W 090°40'0 0.0
2017-Apr-14 07:00N 29°36' W 090°40'0 0.0
2017-Apr-14 06:30N 29°36' W 090°40'0 0.0
2017-Apr-14 06:00N 29°36' W 090°40'0 0.0
2017-Apr-14 05:30N 29°36' W 090°40'0 0.0
2017-Apr-14 05:00N 29°36' W 090°40'0 0.0
2017-Apr-14 04:29N 29°36' W 090°40'0 0.0
2017-Apr-14 04:00N 29°36' W 090°40'0 0.0
2017-Apr-14 03:30N 29°36' W 090°40'0 0.0
2017-Apr-14 03:00N 29°36' W 090°40'0 0.0
2017-Apr-14 02:30N 29°36' W 090°40'0 0.0
2017-Apr-14 01:59N 29°36' W 090°40'0 0.0
2017-Apr-14 01:30N 29°36' W 090°40'0 0.0
2017-Apr-14 01:00N 29°36' W 090°40'0 0.0
2017-Apr-14 00:30N 29°36' W 090°40'0 0.0
2017-Apr-14 00:00N 29°36' W 090°40'0 0.0
2017-Apr-13 23:30N 29°36' W 090°40'0 0.0
2017-Apr-13 23:00N 29°36' W 090°40'0 0.0
2017-Apr-13 22:30N 29°36' W 090°40'0 0.0
2017-Apr-13 22:00N 29°36' W 090°40'0 0.2
2017-Apr-13 21:20N 29°36' W 090°40'0 0.4
2017-Apr-13 21:00N 29°36' W 090°40'0 0.5
2017-Apr-13 20:31N 29°36' W 090°40'2 3.5
2017-Apr-13 20:01N 29°37' W 090°42'2 4.5
2017-Apr-13 19:30N 29°35' W 090°43'3 5.0
2017-Apr-13 19:00N 29°32' W 090°42'3 5.7
2017-Apr-13 18:30N 29°30' W 090°43'3 5.8
2017-Apr-13 18:00N 29°27' W 090°43'6 0.2
2017-Apr-12 17:31N 29°25' W 090°50'0 4.9
2017-Apr-12 17:25N 29°25' W 090°49'2 4.2
2017-Apr-12 16:54N 29°25' W 090°47'2 5.3
2017-Apr-12 16:30N 29°24' W 090°44'2 4.2
2017-Apr-12 16:00N 29°26' W 090°43'3 6.0
2017-Apr-12 15:30N 29°29' W 090°43'3 6.0
2017-Apr-12 15:00N 29°32' W 090°42'3 5.4
2017-Apr-12 14:30N 29°34' W 090°43'3 2.7
2017-Apr-12 13:31N 29°37' W 090°41'1 2.6
2017-Apr-12 13:00N 29°36' W 090°40'0 0.3
2017-Apr-12 12:30N 29°36' W 090°40'0 0.0
2017-Apr-12 07:57N 29°36' W 090°40'0 0.2
2017-Apr-12 07:30N 29°36' W 090°40'0 0.0
2017-Apr-12 05:47N 29°36' W 090°40'0 0.3
2017-Apr-12 05:30N 29°36' W 090°40'3 6.2
2017-Apr-12 05:00N 29°35' W 090°36'3 5.4
2017-Apr-12 04:30N 29°34' W 090°33'  
2017-Apr-05 21:22N 29°34' W 090°32'3 7.3
2017-Apr-05 21:00N 29°34' W 090°35'3 6.1
2017-Apr-05 20:30N 29°35' W 090°38'2 3.0
2017-Apr-05 19:57N 29°36' W 090°40'0 0.1
2017-Apr-05 19:30N 29°36' W 090°40'0 0.1
2017-Apr-05 19:00N 29°36' W 090°40'0 0.0
2017-Apr-05 18:30N 29°36' W 090°40'1 2.0
2017-Apr-05 18:00N 29°35' W 090°39'3 5.4
2017-Apr-05 17:30N 29°35' W 090°36'3 6.0
2017-Apr-05 17:00N 29°34' W 090°33'  

Dump ship's entire track history